Time;durP1;ratioP1;P1;durP2;ratioP2;P2;SDS_P1;SDS_P2;PMS_P1;PMS_P2;Temp;Humidity;BMP_temperature;BMP_pressure;BME280_temperature;BME280_humidity;BME280_pressure;Samples;Min_cycle;Max_cycle;Signal;HPM_P1;HPM_P2
2022/08/01 00:00:07;;;;;;;8.93;2.95;;;;;;;;;;4932705;29;20079;-65
2022/08/01 00:02:38;;;;;;;8.73;3.10;;;;;;;;;;4928701;29;20048;-64
2022/08/01 00:05:10;;;;;;;9.55;2.33;;;;;;;;;;4893107;29;20075;-64
2022/08/01 00:07:41;;;;;;;7.38;2.47;;;;;;;;;;4911631;29;20056;-64
2022/08/01 00:10:14;;;;;;;6.45;2.75;;;;;;;;;;4911941;29;20048;-64
2022/08/01 00:12:45;;;;;;;8.18;2.83;;;;;;;;;;4912279;29;20060;-69
2022/08/01 00:15:18;;;;;;;9.63;2.67;;;;;;;;;;4945693;29;20063;-68
2022/08/01 00:17:48;;;;;;;;;;;;;;;;;;4931502;29;20401;-64
2022/08/01 00:20:18;;;;;;;6.50;2.47;;;;;;;;;;4946571;29;19923;-66
2022/08/01 00:22:48;;;;;;;9.88;3.00;;;;;;;;;;4930492;29;20056;-65
2022/08/01 00:25:18;;;;;;;7.15;2.60;;;;;;;;;;4918545;29;20056;-65
2022/08/01 00:28:03;;;;;;;10.68;3.60;;;;;;;;;;4911972;29;20500;-65
2022/08/01 00:30:33;;;;;;;9.70;2.95;;;;;;;;;;4927008;29;20056;-65
2022/08/01 00:33:03;;;;;;;9.50;2.90;;;;;;;;;;4930999;29;20522;-65
2022/08/01 00:35:34;;;;;;;9.50;3.35;;;;;;;;;;4938973;29;20051;-65
2022/08/01 00:38:04;;;;;;;9.43;3.38;;;;;;;;;;4950029;29;20059;-65
2022/08/01 00:40:36;;;;;;;7.85;3.30;;;;;;;;;;4903127;29;20051;-67
2022/08/01 00:43:06;;;;;;;9.75;2.97;;;;;;;;;;4949491;29;20043;-65
2022/08/01 00:45:36;;;;;;;9.20;3.35;;;;;;;;;;4973905;28;20050;-64
2022/08/01 00:48:06;;;;;;;9.73;2.97;;;;;;;;;;4988969;28;20089;-64
2022/08/01 00:50:37;;;;;;;8.35;3.75;;;;;;;;;;4991498;28;20470;-64
2022/08/01 00:53:08;;;;;;;9.23;3.15;;;;;;;;;;4988730;28;20050;-64
2022/08/01 00:55:48;;;;;;;10.65;2.88;;;;;;;;;;4988893;28;20065;-66
2022/08/01 00:58:18;;;;;;;9.18;3.65;;;;;;;;;;4988643;28;20085;-65
2022/08/01 01:00:52;;;;;;;8.57;2.97;;;;;;;;;;4972489;28;20069;-65
2022/08/01 01:03:24;;;;;;;9.35;3.20;;;;;;;;;;4988796;28;20057;-68
2022/08/01 01:06:46;;;;;;;9.75;3.60;;;;;;;;;;4989465;28;20055;-64
2022/08/01 01:09:34;;;;;;;7.18;3.10;;;;;;;;;;4887508;29;20055;-68
2022/08/01 01:12:29;;;;;;;8.85;3.63;;;;;;;;;;4933543;29;20067;-65
2022/08/01 01:15:23;;;;;;;9.85;4.18;;;;;;;;;;4915372;29;20413;-65
2022/08/01 01:18:10;;;;;;;8.75;3.20;;;;;;;;;;4915447;29;20063;-67
2022/08/01 01:20:50;;;;;;;9.70;3.42;;;;;;;;;;4915315;29;20060;-66
2022/08/01 01:23:47;;;;;;;7.50;3.03;;;;;;;;;;4933507;29;20059;-66
2022/08/01 01:26:39;;;;;;;11.07;3.05;;;;;;;;;;4897035;29;20059;-65
2022/08/01 01:29:14;;;;;;;;;;;;;;;;;;4915624;29;20808;-65
2022/08/01 01:32:23;;;;;;;10.88;3.30;;;;;;;;;;4915011;29;20029;-65
2022/08/01 01:35:01;;;;;;;14.73;3.92;;;;;;;;;;4877477;29;20064;-65
2022/08/01 01:37:33;;;;;;;11.82;4.55;;;;;;;;;;4877577;29;20165;-66
2022/08/01 01:40:05;;;;;;;10.52;3.95;;;;;;;;;;4862641;29;20057;-67
2022/08/01 01:42:37;;;;;;;10.75;4.40;;;;;;;;;;4858425;29;20050;-64
2022/08/01 01:45:09;;;;;;;13.88;4.65;;;;;;;;;;4859060;29;20053;-66
2022/08/01 01:47:41;;;;;;;13.38;3.55;;;;;;;;;;4892652;29;20056;-64
2022/08/01 01:50:12;;;;;;;12.20;3.33;;;;;;;;;;4896026;29;20053;-65
2022/08/01 01:52:45;;;;;;;8.27;3.25;;;;;;;;;;4895811;29;20055;-65
2022/08/01 01:55:18;;;;;;;10.48;3.47;;;;;;;;;;4895846;29;20068;-65
2022/08/01 01:57:50;;;;;;;7.07;3.15;;;;;;;;;;4895573;29;20787;-65
2022/08/01 02:00:21;;;;;;;8.20;3.33;;;;;;;;;;4884568;29;20067;-68
2022/08/01 02:02:54;;;;;;;9.98;3.30;;;;;;;;;;4914722;29;20058;-67
2022/08/01 02:05:26;;;;;;;7.55;2.80;;;;;;;;;;4914697;29;20505;-65
2022/08/01 02:07:58;;;;;;;9.90;3.75;;;;;;;;;;4917248;29;20056;-65
2022/08/01 02:10:31;;;;;;;8.48;3.40;;;;;;;;;;4974107;28;20061;-65
2022/08/01 02:13:06;;;;;;;13.13;3.90;;;;;;;;;;4972216;28;20055;-65
2022/08/01 02:15:40;;;;;;;8.25;3.83;;;;;;;;;;4971988;28;20090;-65
2022/08/01 02:18:28;;;;;;;8.95;3.47;;;;;;;;;;4958424;28;20133;-64
2022/08/01 02:21:00;;;;;;;9.30;3.00;;;;;;;;;;5002966;28;20062;-66
2022/08/01 02:23:34;;;;;;;9.35;3.85;;;;;;;;;;4990441;28;20162;-66
2022/08/01 02:26:10;;;;;;;8.07;4.28;;;;;;;;;;4991071;28;20410;-64
2022/08/01 02:28:53;;;;;;;10.60;3.50;;;;;;;;;;4943109;28;20047;-64
2022/08/01 02:31:24;;;;;;;14.43;4.95;;;;;;;;;;4955359;28;20423;-66
2022/08/01 02:34:01;;;;;;;12.27;3.83;;;;;;;;;;4952315;29;20086;-68
2022/08/01 02:36:37;;;;;;;11.82;4.47;;;;;;;;;;4989010;28;20097;-64
2022/08/01 02:39:15;;;;;;;9.43;4.15;;;;;;;;;;5029789;28;20445;-64
2022/08/01 02:41:48;;;;;;;14.00;3.60;;;;;;;;;;4990580;28;20126;-66
2022/08/01 02:44:31;;;;;;;9.05;3.83;;;;;;;;;;4986863;28;20054;-65
2022/08/01 02:47:04;;;;;;;11.18;3.63;;;;;;;;;;4990441;28;20046;-65
2022/08/01 02:49:39;;;;;;;9.77;4.07;;;;;;;;;;4974379;28;20057;-67
2022/08/01 02:52:12;;;;;;;8.50;4.00;;;;;;;;;;4951646;28;20535;-65
2022/08/01 02:54:45;;;;;;;11.82;4.18;;;;;;;;;;4919901;28;20051;-66
2022/08/01 02:57:18;;;;;;;11.98;4.20;;;;;;;;;;4951467;28;20059;-65
2022/08/01 02:59:51;;;;;;;6.85;3.33;;;;;;;;;;4932394;29;20062;-65
2022/08/01 03:02:24;;;;;;;11.00;3.90;;;;;;;;;;4897224;29;20044;-65
2022/08/01 03:04:56;;;;;;;10.27;3.38;;;;;;;;;;4913681;29;20060;-65
2022/08/01 03:07:29;;;;;;;10.05;3.72;;;;;;;;;;4882119;29;20063;-67
2022/08/01 03:10:09;;;;;;;9.15;3.67;;;;;;;;;;4913942;29;20052;-66
2022/08/01 03:12:41;;;;;;;9.57;4.15;;;;;;;;;;4913132;29;20064;-66
2022/08/01 03:15:15;;;;;;;8.93;3.92;;;;;;;;;;4913487;29;20048;-66
2022/08/01 03:17:48;;;;;;;11.25;4.05;;;;;;;;;;4930664;29;20527;-65
2022/08/01 03:20:18;;;;;;;;;;;;;;;;;;4869083;29;20401;-66
2022/08/01 03:22:52;;;;;;;8.50;3.70;;;;;;;;;;4896584;29;19930;-66
2022/08/01 03:25:24;;;;;;;9.23;4.18;;;;;;;;;;4878386;29;20464;-65
2022/08/01 03:27:57;;;;;;;8.32;3.45;;;;;;;;;;4878496;29;20052;-68
2022/08/01 03:30:28;;;;;;;;;;;;;;;;;;4894058;29;20080;-67
2022/08/01 03:32:59;;;;;;;12.48;3.85;;;;;;;;;;4879053;29;19934;-65
2022/08/01 03:35:41;;;;;;;8.63;3.40;;;;;;;;;;4889158;29;20510;-66
2022/08/01 03:38:13;;;;;;;9.75;3.67;;;;;;;;;;4909512;29;20075;-64
2022/08/01 03:40:50;;;;;;;11.57;4.05;;;;;;;;;;4932171;29;20064;-69
2022/08/01 03:43:33;;;;;;;15.05;4.57;;;;;;;;;;4932235;29;20067;-65
2022/08/01 03:46:07;;;;;;;11.70;4.03;;;;;;;;;;4950945;29;20051;-65
2022/08/01 03:48:44;;;;;;;14.15;3.25;;;;;;;;;;4950991;29;20059;-65
2022/08/01 03:51:15;;;;;;;10.05;3.92;;;;;;;;;;4931191;29;20098;-64
2022/08/01 03:53:47;;;;;;;8.13;3.60;;;;;;;;;;4923924;29;20063;-65
2022/08/01 03:56:19;;;;;;;11.02;3.78;;;;;;;;;;4927944;29;20063;-65
2022/08/01 03:58:50;;;;;;;8.75;4.53;;;;;;;;;;4881407;29;20433;-65
2022/08/01 04:01:21;;;;;;;9.23;3.67;;;;;;;;;;4893700;29;20146;-66
2022/08/01 04:03:52;;;;;;;7.88;3.50;;;;;;;;;;4893595;29;20084;-69
2022/08/01 04:06:22;;;;;;;11.75;3.78;;;;;;;;;;4893713;29;20423;-65
2022/08/01 04:08:56;;;;;;;10.38;3.50;;;;;;;;;;4893908;29;20088;-69
2022/08/01 04:11:28;;;;;;;11.25;4.18;;;;;;;;;;4893668;29;20056;-65
2022/08/01 04:13:58;;;;;;;9.00;3.92;;;;;;;;;;4925186;29;20048;-66
2022/08/01 04:16:28;;;;;;;9.40;3.95;;;;;;;;;;4931283;29;20056;-66
2022/08/01 04:18:58;;;;;;;16.45;3.65;;;;;;;;;;4915646;29;20076;-67
2022/08/01 04:21:33;;;;;;;10.00;4.07;;;;;;;;;;4933527;29;20440;-66
2022/08/01 04:24:15;;;;;;;12.68;4.07;;;;;;;;;;4981291;28;20064;-66
2022/08/01 04:26:47;;;;;;;11.80;3.67;;;;;;;;;;4992722;28;20057;-66
2022/08/01 04:29:19;;;;;;;;;;;;;;;;;;5010493;28;20053;-67
2022/08/01 04:31:51;;;;;;;10.45;3.85;;;;;;;;;;5012049;28;19921;-67
2022/08/01 04:34:25;;;;;;;7.63;3.17;;;;;;;;;;4995696;28;20057;-66
2022/08/01 04:36:56;;;;;;;11.02;3.70;;;;;;;;;;5047785;28;20049;-66
2022/08/01 04:39:31;;;;;;;9.55;4.13;;;;;;;;;;5015221;28;20405;-68
2022/08/01 04:42:19;;;;;;;12.95;3.85;;;;;;;;;;5019158;28;20527;-66
2022/08/01 04:44:58;;;;;;;8.55;3.50;;;;;;;;;;5037341;28;20045;-66
2022/08/01 04:47:30;;;;;;;9.45;3.40;;;;;;;;;;5052436;28;20068;-67
2022/08/01 04:50:06;;;;;;;8.48;3.45;;;;;;;;;;5052715;28;20052;-66
2022/08/01 04:52:38;;;;;;;10.88;3.83;;;;;;;;;;5052410;28;20420;-66
2022/08/01 04:55:10;;;;;;;8.98;3.78;;;;;;;;;;5052187;28;20060;-67
2022/08/01 04:57:43;;;;;;;7.97;3.83;;;;;;;;;;5052081;28;20051;-66
2022/08/01 05:00:16;;;;;;;9.55;4.07;;;;;;;;;;5051918;28;20157;-66
2022/08/01 05:02:46;;;;;;;10.68;4.07;;;;;;;;;;5052432;28;20068;-65
2022/08/01 05:05:20;;;;;;;10.45;4.07;;;;;;;;;;5011605;28;20168;-65
2022/08/01 05:07:50;;;;;;;8.90;3.80;;;;;;;;;;5047231;28;20068;-65
2022/08/01 05:10:20;;;;;;;8.27;3.45;;;;;;;;;;4995956;28;20049;-66
2022/08/01 05:12:51;;;;;;;7.68;3.72;;;;;;;;;;5012260;28;20057;-66
2022/08/01 05:15:22;;;;;;;9.13;3.85;;;;;;;;;;4995511;28;20050;-66
2022/08/01 05:17:52;;;;;;;11.80;3.90;;;;;;;;;;4992273;28;20051;-66
2022/08/01 05:20:22;;;;;;;10.65;3.75;;;;;;;;;;4992413;28;20046;-69
2022/08/01 05:22:52;;;;;;;11.60;4.07;;;;;;;;;;4959419;28;20066;-65
2022/08/01 05:25:25;;;;;;;8.75;3.95;;;;;;;;;;4972430;28;20078;-66
2022/08/01 05:28:15;;;;;;;7.70;3.45;;;;;;;;;;4973120;28;20523;-65
2022/08/01 05:30:47;;;;;;;9.90;3.92;;;;;;;;;;4934005;29;20401;-65
2022/08/01 05:33:17;;;;;;;9.85;3.67;;;;;;;;;;4934250;29;20539;-67
2022/08/01 05:35:48;;;;;;;8.18;3.35;;;;;;;;;;4918325;29;20063;-66
2022/08/01 05:38:18;;;;;;;9.70;3.92;;;;;;;;;;4934066;29;20436;-66
2022/08/01 05:40:48;;;;;;;9.88;4.30;;;;;;;;;;4933895;29;21021;-66
2022/08/01 05:43:18;;;;;;;9.43;3.70;;;;;;;;;;4927097;28;20055;-66
2022/08/01 05:45:54;;;;;;;11.13;3.63;;;;;;;;;;4940108;28;20051;-66
2022/08/01 05:48:25;;;;;;;9.27;3.65;;;;;;;;;;4972760;28;20063;-65
2022/08/01 05:50:55;;;;;;;10.52;3.70;;;;;;;;;;4972336;28;20058;-65
2022/08/01 05:53:27;;;;;;;8.55;3.58;;;;;;;;;;4971914;28;20046;-66
2022/08/01 05:55:57;;;;;;;8.18;3.50;;;;;;;;;;4933469;29;20047;-66
2022/08/01 05:58:28;;;;;;;7.50;3.20;;;;;;;;;;4917575;29;20054;-64
2022/08/01 06:00:59;;;;;;;8.02;3.72;;;;;;;;;;4883166;29;20563;-68
2022/08/01 06:03:31;;;;;;;10.82;3.15;;;;;;;;;;4940022;29;20070;-66
2022/08/01 06:06:02;;;;;;;9.75;3.38;;;;;;;;;;4933422;29;20105;-67
2022/08/01 06:08:34;;;;;;;12.40;3.25;;;;;;;;;;4967626;28;20057;-66
2022/08/01 06:11:05;;;;;;;8.50;4.30;;;;;;;;;;4991497;28;20443;-67
2022/08/01 06:13:35;;;;;;;10.02;3.25;;;;;;;;;;4991668;28;20062;-66
2022/08/01 06:16:17;;;;;;;11.35;3.78;;;;;;;;;;4991595;28;20054;-65
2022/08/01 06:18:47;;;;;;;6.68;3.72;;;;;;;;;;4991287;28;20426;-66
2022/08/01 06:21:22;;;;;;;8.80;3.50;;;;;;;;;;4958739;28;20054;-66
2022/08/01 06:23:53;;;;;;;9.27;3.33;;;;;;;;;;4952031;29;20066;-66
2022/08/01 06:26:23;;;;;;;7.40;3.40;;;;;;;;;;4955902;28;20102;-66
2022/08/01 06:28:53;;;;;;;8.82;3.58;;;;;;;;;;4939551;28;20062;-66
2022/08/01 06:31:23;;;;;;;10.20;3.35;;;;;;;;;;4955796;28;20530;-67
2022/08/01 06:33:59;;;;;;;10.35;3.55;;;;;;;;;;4952271;28;20074;-65
2022/08/01 06:36:29;;;;;;;8.30;3.22;;;;;;;;;;4932935;29;20055;-65
2022/08/01 06:38:59;;;;;;;7.05;3.17;;;;;;;;;;4945891;28;20054;-65
2022/08/01 06:41:29;;;;;;;6.35;2.97;;;;;;;;;;4932572;29;20052;-65
2022/08/01 06:44:02;;;;;;;7.53;3.03;;;;;;;;;;4898401;28;20063;-65
2022/08/01 06:46:34;;;;;;;7.65;3.45;;;;;;;;;;4951834;28;20059;-64
2022/08/01 06:49:05;;;;;;;6.90;2.85;;;;;;;;;;4951725;28;20070;-65
2022/08/01 06:51:35;;;;;;;9.75;3.08;;;;;;;;;;4951858;28;20058;-65
2022/08/01 06:54:05;;;;;;;7.80;3.03;;;;;;;;;;4936298;28;20059;-64
2022/08/01 06:56:36;;;;;;;9.45;2.70;;;;;;;;;;4951812;28;20067;-64
2022/08/01 06:59:07;;;;;;;8.68;3.60;;;;;;;;;;4951936;28;20082;-64
2022/08/01 07:01:37;;;;;;;7.85;2.70;;;;;;;;;;4913258;29;20056;-66
2022/08/01 07:04:07;;;;;;;8.57;2.85;;;;;;;;;;4912514;29;20064;-65
2022/08/01 07:06:37;;;;;;;6.00;2.83;;;;;;;;;;4913227;29;20515;-66
2022/08/01 07:09:08;;;;;;;7.82;3.20;;;;;;;;;;4913697;29;20052;-66
2022/08/01 07:11:42;;;;;;;7.82;3.40;;;;;;;;;;4913601;29;20429;-65
2022/08/01 07:14:12;;;;;;;8.90;3.20;;;;;;;;;;4923465;29;20056;-65
2022/08/01 07:16:42;;;;;;;7.57;3.45;;;;;;;;;;4932158;29;20060;-65
2022/08/01 07:19:13;;;;;;;8.43;3.50;;;;;;;;;;4942622;29;20055;-65
2022/08/01 07:21:44;;;;;;;7.22;2.80;;;;;;;;;;4951254;29;20051;-65
2022/08/01 07:24:17;;;;;;;7.55;3.00;;;;;;;;;;4950952;29;20055;-65
2022/08/01 07:26:50;;;;;;;8.48;2.92;;;;;;;;;;4951257;29;20063;-66
2022/08/01 07:29:24;;;;;;;8.30;2.70;;;;;;;;;;4962223;28;20054;-65
2022/08/01 07:31:56;;;;;;;10.00;3.30;;;;;;;;;;4970367;28;20066;-66
2022/08/01 07:34:27;;;;;;;6.95;2.75;;;;;;;;;;4970591;28;20065;-65
2022/08/01 07:36:57;;;;;;;8.82;2.67;;;;;;;;;;4970116;28;20058;-65
2022/08/01 07:39:27;;;;;;;12.60;3.00;;;;;;;;;;4993088;28;20053;-65
2022/08/01 07:41:57;;;;;;;6.20;2.58;;;;;;;;;;4993033;28;20054;-65
2022/08/01 07:44:37;;;;;;;4.78;2.17;;;;;;;;;;5012524;28;20068;-65
2022/08/01 07:47:07;;;;;;;9.10;3.15;;;;;;;;;;4979836;28;20057;-69
2022/08/01 07:49:37;;;;;;;5.85;2.53;;;;;;;;;;5029047;28;20075;-65
2022/08/01 07:52:09;;;;;;;6.60;2.55;;;;;;;;;;5012934;28;20057;-65
2022/08/01 07:54:39;;;;;;;8.63;2.85;;;;;;;;;;5008788;28;20085;-65
2022/08/01 07:57:10;;;;;;;6.53;3.10;;;;;;;;;;5009247;28;20386;-65
2022/08/01 07:59:40;;;;;;;7.68;2.95;;;;;;;;;;4960503;28;20717;-65
2022/08/01 08:02:10;;;;;;;8.05;2.95;;;;;;;;;;4976117;28;20069;-65
2022/08/01 08:04:41;;;;;;;7.82;3.08;;;;;;;;;;4976679;28;20068;-64
2022/08/01 08:07:17;;;;;;;5.03;2.80;;;;;;;;;;5015372;28;20079;-66
2022/08/01 08:09:47;;;;;;;5.82;2.90;;;;;;;;;;5028527;28;20050;-66
2022/08/01 08:12:19;;;;;;;4.72;2.13;;;;;;;;;;5028415;28;20509;-65
2022/08/01 08:15:00;;;;;;;5.53;3.00;;;;;;;;;;5028125;28;20394;-66
2022/08/01 08:17:33;;;;;;;8.30;2.80;;;;;;;;;;4996834;28;20061;-66
2022/08/01 08:20:06;;;;;;;7.53;2.95;;;;;;;;;;4988950;28;20051;-65
2022/08/01 08:22:37;;;;;;;7.97;2.70;;;;;;;;;;4989051;28;20055;-65
2022/08/01 08:25:08;;;;;;;7.30;2.88;;;;;;;;;;4969114;28;20051;-65
2022/08/01 08:27:42;;;;;;;7.32;2.50;;;;;;;;;;4937757;28;20134;-65
2022/08/01 08:30:13;;;;;;;7.97;2.78;;;;;;;;;;4969838;28;20054;-67
2022/08/01 08:32:44;;;;;;;7.43;3.15;;;;;;;;;;4937207;28;20058;-65
2022/08/01 08:35:14;;;;;;;7.55;2.67;;;;;;;;;;4969237;28;20051;-64
2022/08/01 08:38:08;;;;;;;7.90;2.95;;;;;;;;;;4956534;28;20172;-65
2022/08/01 08:40:39;;;;;;;7.32;2.90;;;;;;;;;;4969318;28;20055;-65
2022/08/01 08:43:10;;;;;;;7.10;2.42;;;;;;;;;;4969822;28;20051;-65
2022/08/01 08:45:41;;;;;;;6.30;2.65;;;;;;;;;;4922040;28;20586;-66
2022/08/01 08:48:30;;;;;;;6.43;2.70;;;;;;;;;;4988029;28;20062;-65
2022/08/01 08:51:01;;;;;;;7.10;2.63;;;;;;;;;;4988291;28;20523;-64
2022/08/01 08:53:34;;;;;;;6.97;2.75;;;;;;;;;;4988816;28;20065;-67
2022/08/01 08:56:08;;;;;;;10.18;3.15;;;;;;;;;;4936957;28;20047;-65
2022/08/01 08:58:39;;;;;;;9.20;3.00;;;;;;;;;;4952644;28;20067;-65
2022/08/01 09:01:09;;;;;;;6.65;3.10;;;;;;;;;;4988529;28;20430;-66
2022/08/01 09:03:40;;;;;;;6.22;2.60;;;;;;;;;;4985701;28;20514;-65
2022/08/01 09:06:11;;;;;;;7.63;3.33;;;;;;;;;;4988594;28;20445;-65
2022/08/01 09:08:42;;;;;;;6.80;3.03;;;;;;;;;;4989054;28;20073;-66
2022/08/01 09:11:13;;;;;;;9.13;2.97;;;;;;;;;;4969078;28;20043;-67
2022/08/01 09:14:07;;;;;;;7.65;3.38;;;;;;;;;;4986641;28;20065;-66
2022/08/01 09:16:42;;;;;;;6.47;2.72;;;;;;;;;;4988631;28;20066;-66
2022/08/01 09:19:19;;;;;;;8.30;3.30;;;;;;;;;;4988766;28;20058;-65
2022/08/01 09:22:09;;;;;;;;;;;;;;;;;;4956442;28;20102;-65
2022/08/01 09:24:41;;;;;;;8.82;3.45;;;;;;;;;;4988100;28;19925;-65
2022/08/01 09:27:20;;;;;;;6.40;2.38;;;;;;;;;;4973153;28;20057;-65
2022/08/01 09:29:53;;;;;;;6.30;2.40;;;;;;;;;;4876277;29;20063;-64
2022/08/01 09:32:29;;;;;;;;;;;;;;;;;;4953828;29;20066;-65
2022/08/01 09:35:26;;;;;;;5.95;2.65;;;;;;;;;;4953464;28;19937;-64
2022/08/01 09:38:16;;;;;;;8.35;3.67;;;;;;;;;;4969383;28;20400;-65
2022/08/01 09:40:57;;;;;;;6.30;2.88;;;;;;;;;;4963687;28;20054;-65
2022/08/01 09:43:30;;;;;;;8.07;3.10;;;;;;;;;;4952851;29;20051;-66
2022/08/01 09:46:09;;;;;;;7.60;2.90;;;;;;;;;;4918052;29;20047;-65
2022/08/01 09:49:04;;;;;;;7.55;3.17;;;;;;;;;;4914813;29;20052;-65
2022/08/01 09:51:39;;;;;;;15.68;3.10;;;;;;;;;;4914722;29;20064;-65
2022/08/01 09:54:31;;;;;;;6.43;2.85;;;;;;;;;;4914821;29;20051;-65
2022/08/01 09:57:13;;;;;;;12.55;4.28;;;;;;;;;;4899713;29;20539;-65
2022/08/01 09:59:46;;;;;;;6.65;2.88;;;;;;;;;;4919621;28;20566;-65
2022/08/01 10:02:39;;;;;;;7.82;3.13;;;;;;;;;;4924358;28;20050;-66
2022/08/01 10:05:11;;;;;;;6.78;3.25;;;;;;;;;;4972069;28;20055;-65
2022/08/01 10:08:01;;;;;;;7.82;3.03;;;;;;;;;;4972085;28;20059;-66
2022/08/01 10:10:36;;;;;;;6.75;2.80;;;;;;;;;;4971520;28;20061;-67
2022/08/01 10:13:08;;;;;;;9.65;3.50;;;;;;;;;;4948958;29;20055;-64
2022/08/01 10:15:39;;;;;;;7.05;3.35;;;;;;;;;;4917341;29;20060;-65
2022/08/01 10:18:10;;;;;;;8.25;3.20;;;;;;;;;;4956115;28;20052;-66
2022/08/01 10:20:46;;;;;;;7.82;3.35;;;;;;;;;;4955631;28;20063;-68
2022/08/01 10:23:17;;;;;;;9.05;3.33;;;;;;;;;;4971063;28;20813;-65
2022/08/01 10:25:50;;;;;;;7.85;3.33;;;;;;;;;;4951921;28;20058;-65
2022/08/01 10:28:26;;;;;;;7.18;3.13;;;;;;;;;;4952320;28;20051;-66
2022/08/01 10:30:58;;;;;;;8.55;3.40;;;;;;;;;;4920600;28;20059;-67
2022/08/01 10:33:30;;;;;;;7.07;3.33;;;;;;;;;;4971733;28;20050;-70
2022/08/01 10:36:22;;;;;;;10.23;3.55;;;;;;;;;;4984445;28;20058;-64
2022/08/01 10:38:55;;;;;;;8.65;3.42;;;;;;;;;;4922639;28;20061;-65
2022/08/01 10:41:29;;;;;;;9.35;3.67;;;;;;;;;;4971436;28;20050;-64
2022/08/01 10:44:02;;;;;;;8.95;3.13;;;;;;;;;;4971235;28;20070;-65
2022/08/01 10:46:39;;;;;;;13.63;4.25;;;;;;;;;;4970928;28;20410;-64
2022/08/01 10:49:20;;;;;;;7.45;3.60;;;;;;;;;;4949278;28;20047;-65
2022/08/01 10:51:50;;;;;;;6.63;3.22;;;;;;;;;;4951197;29;20062;-65
2022/08/01 10:54:26;;;;;;;10.25;4.05;;;;;;;;;;4936534;29;20044;-67
2022/08/01 10:57:00;;;;;;;9.27;3.53;;;;;;;;;;4939109;29;20570;-66
2022/08/01 10:59:31;;;;;;;10.48;3.80;;;;;;;;;;4932680;29;20051;-65
2022/08/01 11:02:33;;;;;;;10.63;4.75;;;;;;;;;;4933458;29;20468;-65
2022/08/01 11:05:12;;;;;;;10.80;4.70;;;;;;;;;;4951504;29;20056;-65
2022/08/01 11:07:53;;;;;;;12.40;4.45;;;;;;;;;;4951542;29;20066;-65
2022/08/01 11:10:45;;;;;;;12.52;4.55;;;;;;;;;;4951776;29;20060;-66
2022/08/01 11:13:53;;;;;;;8.88;4.07;;;;;;;;;;4923540;28;20050;-65
2022/08/01 11:16:29;;;;;;;10.48;3.53;;;;;;;;;;4965247;28;20058;-67
2022/08/01 11:19:00;;;;;;;11.77;3.65;;;;;;;;;;4989820;28;20059;-65
2022/08/01 11:21:55;;;;;;;9.48;4.20;;;;;;;;;;4990118;28;20050;-66
2022/08/01 11:24:47;;;;;;;10.27;4.30;;;;;;;;;;5001722;28;20057;-65
2022/08/01 11:27:21;;;;;;;14.48;4.93;;;;;;;;;;5009760;28;20042;-66
2022/08/01 11:30:10;;;;;;;14.32;6.97;;;;;;;;;;4970240;28;20404;-65
2022/08/01 11:32:52;;;;;;;14.15;7.45;;;;;;;;;;4955153;28;20418;-66
2022/08/01 11:36:11;;;;;;;17.83;7.95;;;;;;;;;;4948037;28;20528;-65
2022/08/01 11:38:49;;;;;;;20.38;8.77;;;;;;;;;;4989496;28;20049;-67
2022/08/01 11:41:29;;;;;;;15.25;7.22;;;;;;;;;;4972863;28;20065;-67
2022/08/01 11:44:14;;;;;;;17.73;6.65;;;;;;;;;;5007869;28;20150;-65
2022/08/01 11:46:58;;;;;;;13.95;5.18;;;;;;;;;;5008586;28;20054;-65
2022/08/01 11:49:37;;;;;;;20.38;6.15;;;;;;;;;;4988878;28;20062;-65
2022/08/01 11:52:23;;;;;;;15.23;5.93;;;;;;;;;;4989627;28;20062;-65
2022/08/01 11:55:15;;;;;;;12.18;5.18;;;;;;;;;;4988854;28;20055;-64
2022/08/01 11:57:45;;;;;;;13.70;5.88;;;;;;;;;;4929238;28;20051;-64
2022/08/01 12:00:19;;;;;;;16.30;7.03;;;;;;;;;;4940874;28;20420;-64
2022/08/01 12:02:58;;;;;;;14.20;5.18;;;;;;;;;;4939644;28;20047;-65
2022/08/01 12:05:34;;;;;;;11.88;5.68;;;;;;;;;;4948901;28;20059;-65
2022/08/01 12:08:11;;;;;;;16.20;5.03;;;;;;;;;;4965307;28;20058;-65
2022/08/01 12:10:42;;;;;;;13.20;4.80;;;;;;;;;;4969793;28;20050;-65
2022/08/01 12:13:19;;;;;;;10.20;4.80;;;;;;;;;;4930842;29;20511;-66
2022/08/01 12:15:52;;;;;;;11.73;4.82;;;;;;;;;;4893331;29;20052;-65
2022/08/01 12:18:25;;;;;;;11.00;4.05;;;;;;;;;;4877392;29;20053;-65
2022/08/01 12:21:06;;;;;;;10.93;4.70;;;;;;;;;;4897459;29;20056;-64
2022/08/01 12:23:37;;;;;;;10.07;4.40;;;;;;;;;;4911859;29;20044;-65
2022/08/01 12:26:07;;;;;;;9.13;4.10;;;;;;;;;;4914247;29;20064;-64
2022/08/01 12:28:57;;;;;;;10.45;4.20;;;;;;;;;;4931105;29;20535;-64
2022/08/01 12:31:34;;;;;;;12.75;4.05;;;;;;;;;;4931241;29;20099;-64
2022/08/01 12:34:29;;;;;;;11.95;3.67;;;;;;;;;;4911536;29;20071;-65
2022/08/01 12:37:02;;;;;;;10.32;3.83;;;;;;;;;;4930768;29;20060;-65
2022/08/01 12:39:34;;;;;;;8.35;4.22;;;;;;;;;;4930951;29;20381;-65
2022/08/01 12:42:13;;;;;;;16.20;4.47;;;;;;;;;;4930780;29;20040;-66
2022/08/01 12:44:46;;;;;;;8.05;3.95;;;;;;;;;;4911176;29;20060;-64
2022/08/01 12:47:17;;;;;;;11.80;4.18;;;;;;;;;;4887532;29;20544;-65
2022/08/01 12:49:48;;;;;;;9.40;4.70;;;;;;;;;;4893375;29;20060;-64
2022/08/01 12:52:22;;;;;;;11.77;6.07;;;;;;;;;;4919829;29;20067;-64
2022/08/01 12:55:21;;;;;;;16.98;7.47;;;;;;;;;;4903447;29;20052;-64
2022/08/01 12:58:14;;;;;;;14.25;7.28;;;;;;;;;;4888932;29;20116;-65
2022/08/01 13:00:47;;;;;;;15.25;7.90;;;;;;;;;;4892848;29;20601;-67
2022/08/01 13:03:20;;;;;;;17.83;8.35;;;;;;;;;;4912034;29;20536;-69
2022/08/01 13:05:55;;;;;;;22.45;8.15;;;;;;;;;;4881042;29;20464;-64
2022/08/01 13:08:31;;;;;;;22.30;10.15;;;;;;;;;;4870423;29;20053;-64
2022/08/01 13:11:16;;;;;;;20.70;10.48;;;;;;;;;;4889613;29;20052;-64
2022/08/01 13:13:53;;;;;;;22.60;10.88;;;;;;;;;;4892914;29;20056;-64
2022/08/01 13:16:25;;;;;;;24.13;11.80;;;;;;;;;;4896511;29;20064;-66
2022/08/01 13:19:16;;;;;;;24.42;11.30;;;;;;;;;;4877451;29;20061;-64
2022/08/01 13:21:56;;;;;;;14.70;6.97;;;;;;;;;;4877738;29;20067;-60
2022/08/01 13:24:29;;;;;;;13.90;7.15;;;;;;;;;;4877202;29;20053;-61
2022/08/01 13:27:03;;;;;;;13.20;5.65;;;;;;;;;;4878863;29;20058;-61
2022/08/01 13:29:42;;;;;;;13.35;5.07;;;;;;;;;;4846728;29;20399;-61
2022/08/01 13:32:20;;;;;;;12.23;5.35;;;;;;;;;;4850246;29;20054;-61
2022/08/01 13:35:02;;;;;;;14.68;5.82;;;;;;;;;;4894175;29;20059;-60
2022/08/01 13:37:33;;;;;;;12.35;6.53;;;;;;;;;;4933873;29;20074;-62
2022/08/01 13:40:08;;;;;;;17.88;6.35;;;;;;;;;;4941202;29;20052;-61
2022/08/01 13:42:39;;;;;;;16.08;6.53;;;;;;;;;;4940638;28;20059;-61
2022/08/01 13:45:11;;;;;;;12.93;7.10;;;;;;;;;;4917088;29;21376;-61
2022/08/01 13:47:43;;;;;;;13.07;5.22;;;;;;;;;;4913300;28;20048;-61
2022/08/01 13:50:33;;;;;;;;;;;;;;;;;;4966978;28;20058;-61
2022/08/01 13:53:03;;;;;;;12.77;5.30;;;;;;;;;;4975462;28;19922;-61
2022/08/01 13:58:29;;;;;;;10.68;5.13;;;;;;;;;;4997665;28;20046;-61
2022/08/01 14:01:00;;;;;;;13.13;5.70;;;;;;;;;;5006895;28;20103;-62
2022/08/01 14:03:34;;;;;;;14.30;6.20;;;;;;;;;;4992292;28;20054;-62
2022/08/01 14:06:05;;;;;;;13.38;5.45;;;;;;;;;;4991633;28;20058;-61
2022/08/01 14:08:35;;;;;;;15.80;6.15;;;;;;;;;;4971916;28;20054;-60
2022/08/01 14:11:06;;;;;;;9.15;4.03;;;;;;;;;;4932882;29;20051;-60
2022/08/01 14:13:38;;;;;;;10.95;5.15;;;;;;;;;;4932771;29;20617;-61
2022/08/01 14:16:15;;;;;;;10.88;4.65;;;;;;;;;;4907285;29;20060;-61
2022/08/01 14:18:45;;;;;;;13.23;4.40;;;;;;;;;;4948684;28;20075;-62
2022/08/01 14:21:16;;;;;;;9.13;3.13;;;;;;;;;;4899196;29;20067;-63
2022/08/01 14:23:46;;;;;;;9.60;3.47;;;;;;;;;;4936423;28;20074;-61
2022/08/01 14:26:17;;;;;;;9.80;4.43;;;;;;;;;;4996368;28;20105;-61
2022/08/01 14:28:47;;;;;;;5.65;3.03;;;;;;;;;;4993917;28;20061;-61
2022/08/01 14:31:18;;;;;;;7.13;3.20;;;;;;;;;;4994115;28;20069;-61
2022/08/01 14:33:48;;;;;;;7.18;2.60;;;;;;;;;;4990523;28;20043;-62
2022/08/01 14:36:18;;;;;;;8.60;2.72;;;;;;;;;;4932176;29;20055;-62
2022/08/01 14:38:59;;;;;;;4.18;2.05;;;;;;;;;;4908595;29;20052;-61
2022/08/01 14:41:30;;;;;;;6.45;2.40;;;;;;;;;;4910693;29;20057;-61
2022/08/01 14:44:00;;;;;;;6.05;2.35;;;;;;;;;;4879371;29;20061;-62
2022/08/01 14:46:30;;;;;;;5.95;2.92;;;;;;;;;;4920836;29;20063;-62
2022/08/01 14:49:02;;;;;;;6.72;3.03;;;;;;;;;;4913515;29;20067;-61
2022/08/01 14:51:34;;;;;;;7.05;2.75;;;;;;;;;;4925089;29;20056;-61
2022/08/01 14:54:05;;;;;;;;;;;;;;;;;;4907157;29;20586;-62
2022/08/01 14:56:37;;;;;;;6.25;2.53;;;;;;;;;;4919835;29;19978;-61
2022/08/01 14:59:07;;;;;;;7.80;3.92;;;;;;;;;;4916064;29;20204;-64
2022/08/01 15:01:50;;;;;;;6.30;3.20;;;;;;;;;;4932546;29;20063;-64
2022/08/01 15:04:20;;;;;;;5.10;2.80;;;;;;;;;;4932596;29;20048;-63
2022/08/01 15:06:50;;;;;;;6.35;3.25;;;;;;;;;;4932389;29;20056;-62
2022/08/01 15:09:20;;;;;;;5.95;2.40;;;;;;;;;;4928903;29;20048;-64
2022/08/01 15:11:51;;;;;;;11.38;3.33;;;;;;;;;;4938455;29;20547;-63
2022/08/01 15:17:09;;;;;;;5.13;2.33;;;;;;;;;;4970783;28;20055;-64
2022/08/01 15:19:39;;;;;;;5.47;2.60;;;;;;;;;;4970746;28;20107;-66
2022/08/01 15:22:10;;;;;;;5.75;2.90;;;;;;;;;;4970264;28;20094;-65
2022/08/01 15:24:41;;;;;;;6.10;2.90;;;;;;;;;;4983613;28;20525;-65
2022/08/01 15:27:11;;;;;;;11.07;4.95;;;;;;;;;;4990086;28;20050;-66
2022/08/01 15:29:41;;;;;;;9.02;4.47;;;;;;;;;;4989990;28;20058;-66
2022/08/01 15:32:12;;;;;;;9.18;2.67;;;;;;;;;;4995271;28;20528;-65